< < Back
Terminal Aerodrome Forecast


Current Version              Previous Versions:   1  2  3  4  5  6  7  8  9  

Terminal Aerodrome Forecast

936
FTUS44 KBMX 251136
TAFBHM
TAF
KBHM 251136Z 2512/2612 06003KT P6SM BKN050
     FM251600 13006KT P6SM SCT250
     FM252000 06006KT P6SM SCT050=

Latest METAR

039
SAUS70 KWBC 251300 RRB
MTRBHM
METAR KBHM 251253Z 11003KT 10SM FEW050 SCT090 BKN250 27/23 A3022 RMK AO2
SLP223 T02670228


USA.gov is the U.S. government's official web portal to all federal, state and local government web resources and services.